Sault Ste Marie Airport
CYAM : now visible

Airfield :











YOU CAN JOIN US ON...

 
LOGIN :

Register | Disclaimer

   EN    FR    IT 

 









Legend :    VFR   Marginal VFR   IFR   Intensive IFR   Very Intensive IFR
Visi :
Ceiling :
>= 8 km
>= 3000ft
5 to 8 km
1000 to 3000 ft
1500m to 5 km
500 to 1000 ft
800 to 1500m
200 to 500 ft
< 800m
< 200 ft
Symbols :   Thunderstorms  Fog  Heavy snow  Heavy precipitations  Wind > 20 kt






- Airport Elevation : 630 ft
- IATA code : YAM


CYAM - Sault Ste Marie

CURRENT METAR :
  • 081800Z 31010KT 10SM FEW002 SCT007 BKN013 04/02 A2967 RMK SF1ST3CU4 SF TR SLP057

EXPIRED METARs :
  • 081744Z 30009KT 10SM FEW002 SCT007 BKN013 04/03 A2968 RMK SF1ST3CU4 SF TR SLP059
  • 081717Z 28008KT 8SM FEW002 BKN005 OVC013 02/02 A2968 RMK SF2ST7CU1 VIS N-SE 1 1/2 CIG VRB 3-7 SLP060
  • 081700Z 28008KT 1 1/4SM BR BKN002 OVC006 02/02 A2968 RMK FG2ST5ST1 VIS VRB 3/4 - 1 3/4 VIS SW 5 CIG VRB 1-3 SLP060
  • 081641Z 28007KT 1 1/4SM BR OVC002 02/02 A2969 RMK FG2ST6 VIS VRB 3/4 - 1 3/4 VIS SW 5 SLP062
  • 081600Z 28008KT 1SM R12/P6000FT/N -DZ BR OVC002 02/01 A2969 RMK FG3ST5 VIS VRB 3/4 - 1 1/4 CIG VRB 1-3 SLP062

TAF TAF CYAM
Valid from the 08 at 14:00 until the 09 at 02:00 UTC


081338Z 0814/0902 28007KT 3/4SM -DZ BR BKN002 OVC005
TEMPO 0814/0816 1/2SM -DZ FG VV001
FM081600 29008KT 1SM -DZ BR OVC004
TEMPO 0816/0818 6SM BR OVC006
FM081800 32008KT 5SM -DZ BR BKN006 OVC015
TEMPO 0818/0820 P6SM NSW SCT006 OVC015
FM082000 30012KT P6SM BKN040 RMK NXT FCST BY 082000Z



MET'MAP, your aeronautical weather chart ! - Copyright ORBIFLY December 2007 - Disclaimer

ORBIFLY MET'MAP TEAM :

Programming & Development : Alexandra Zaïnal
Concept & original design : Baudouin d'Aumeries
Assistance for programming : Marc-Olivier Méhu
Technical & hardware support : Manuel Goepfert

Contact : metmap@orbifly.com




SOURCES & CREDITS :

   NOAA       Earth
Advisory